• Join FlightAware (Why Join?)
  • Login
  • US Flag 
06:01AM EDT


 

Airport Tracker/Info


-or-


 

Live Flight TrackerFlight Track Log ✈ SWA1435 ✈ 08-Sep-2013 ✈ KMDW - KSTL

Flight Track Log - Related Links

Times and Time Zones

All times are in EDT time to prevent confusion due to time zone crossing. See the SWA1435 flight status page for this flight to view local times or setup timezone preferences in your user account.

Time Position Orientation Groundspeed Altitude Reporting Facility
EDT Latitude Longitude Course Direction KTS MPH feet Rate Location/Type
04:19PM 41.8000 -87.7167 166° South 171 197 2,100  Level Chicago TRACON
04:20PM 41.7500 -87.7000 166° South 227 261 4,200 2,280 Climbing Chicago TRACON
04:21PM 41.7014 -87.7236 200° South 234 269 6,400 2,760 Climbing Chicago Center
04:22PM 41.6417 -87.7889 219° Southwest 267 307 9,700 2,520 Climbing Chicago Center
04:23PM 41.5797 -87.8500 216° Southwest 275 316 11,700 1,980 Climbing Chicago Center
04:24PM 41.4911 -87.8589 184° South 319 367 13,900 1,800 Climbing Chicago Center
04:25PM 41.4000 -87.8514 176° South 324 373 15,500 1,800 Climbing Chicago Center
04:26PM 41.3056 -87.8436 176° South 334 384 17,700 1,980 Climbing Chicago Center
04:27PM 41.2058 -87.8347 176° South 354 407 19,600 1,740 Climbing Chicago Center
04:28PM 41.0861 -87.8950 201° Southwest 385 443 21,400 1,740 Climbing Chicago Center
04:29PM 40.9825 -87.9514 202° Southwest 398 458 23,200 1,500 Climbing Chicago Center
04:30PM 40.8747 -88.0069 201° Southwest 410 472 24,500 1,260 Climbing Chicago Center
04:31PM 40.7628 -88.0681 202° Southwest 430 495 25,900 720 Climbing Chicago Center
04:32PM 40.6506 -88.1272 202° Southwest 435 501 26,000  Climbing Chicago Center
04:33PM 40.5144 -88.1969 201° Southwest 439 505 26,000  Level Chicago Center
04:34PM 40.4000 -88.2497 199° South 437 503 26,000  Level Chicago Center
04:35PM 40.2853 -88.3031 200° South 439 505 26,000  Level Chicago Center
04:36PM 40.1617 -88.3608 200° South 441 507 26,000  Level Chicago Center
04:38PM 40.0442 -88.4164 200° South 445 512 26,000 -540 Level Chicago Center
04:39PM 39.9267 -88.4697 199° South 445 512 25,000 -960 Descending Chicago Center
04:39PM 39.8564 -88.5061 202° Southwest 444 511 24,400 -600 Descending Kansas City Center
04:40PM 39.7414 -88.5583 199° South 441 507 24,000 -240 Descending Kansas City Center
04:41PM 39.6261 -88.6125 200° South 439 505 24,000  Level Kansas City Center
04:42PM 39.5067 -88.7189 215° Southwest 434 499 24,000  Level Kansas City Center
04:43PM 39.4139 -88.8206 220° Southwest 435 501 24,000  Level Kansas City Center
04:44PM 39.3261 -88.9156 220° Southwest 439 505 24,000  Level Kansas City Center
04:45PM 39.2325 -89.0150 219° Southwest 438 504 24,000 -180 Level Kansas City Center
04:46PM 39.1186 -89.1356 219° Southwest 436 502 23,700 -780 Descending Kansas City Center
04:47PM 39.0686 -89.2661 244° Southwest 412 474 22,400 -1,860 Descending Kansas City Center
04:49PM 39.0353 -89.4214 255° West 419 482 19,900 -2,160 Descending Kansas City Center
04:50PM 39.0044 -89.5603 254° West 409 471 18,000 -2,220 Descending Kansas City Center
04:51PM 38.9650 -89.6953 249° West 383 441 15,300 -2,280 Descending Kansas City Center
04:52PM 38.9261 -89.8158 248° West 370 426 13,300 -1,920 Descending Kansas City Center
04:53PM 38.8889 -89.9353 248° West 357 411 11,400 -1,500 Descending Kansas City Center
04:54PM 38.8544 -90.0425 248° West 338 389 10,200 -1,080 Descending Kansas City Center
04:55PM 38.8236 -90.1383 248° West 304 350 9,200 -1,140 Descending Kansas City Center
04:56PM 38.8050 -90.2331 256° West 291 335 7,900 -1,020 Descending Kansas City Center
04:57PM 38.8394 -90.3117 299° West 263 303 7,100 -1,020 Descending Kansas City Center
04:58PM 38.8800 -90.3981 301° West 242 278 5,800 -1,020 Descending Kansas City Center
04:59PM 38.8717 -90.4686 261° West 218 251 5,100 -900 Descending Kansas City Center
05:00PM 38.8428 -90.5264 237° Southwest 197 227 4,000 -1,200 Descending Kansas City Center
05:01PM 38.8072 -90.5064 156° South 171 197 2,700 -1,020 Descending Kansas City Center
05:02PM 38.7922 -90.4550 111° Southeast 156 180 1,900 -780 Descending Kansas City Center
05:03PM 38.7697 -90.4114 123° Southeast 149 171 1,200 -660 Descending Kansas City Center
05:04PM 38.7475 -90.3653 122° Southeast 143 165 600 -600 Descending Kansas City Center